Página principal
METAR-TAF:

METAR-TAF

Aeroportos :

Santa Ana del Yacuma, Bolívia

latitude: 13-46S, longitude: 065-26W, altura: 144 m

Observação actual do tempo

O boletim foi feito há 1 hora e 19 minutos, às 14:00 UTC
Vento 6 kt de sul
Temperatura 26°C
Humidade 94%
Pressão 1015 hPa
Visibilidade 10 km ou mais
Nuvens dispersasa uma altura de 1000 ft
Encobertoa uma altura de 8000 ft

METAR: SLSA 261400Z 18006KT 9999 SCT010 OVC080 26/25 Q1015

Hora: 11:19 (15:19 UTC)


TAF: em falta

Observações e previsões do tempo de mais de 4000 aeroportos (mensagens METAR e TAF).

As estações disponíveis são os pontos amarelos e vermelhos sobre o mapa.

Mova o rato sobre o mapa para ver o nome da estação.

Depois clique no ponto para visualizar as observações e previsões meteorológicas.

Para alterar o mapa : clique nos botões verdes com uma cruz preta para aumentar o zoom; no botão verde com uma pitada de zoom; ou nas setas verdes para mapas adjacentes.


METAR-TAF: